Terminal Aerodrome Forecast
Issued by NWS Tampa Bay Area, FL

Home | Current Version | Previous Version | Text Only | Print | Product List | Glossary On
Versions: 1 2 3 4 5 6 7 8 9 10 11 12 13 14 15 16 17
000
FTUS42 KTBW 122300
TAFSRQ
TAF
KSRQ 122332Z 1300/1324 09005KT P6SM FEW100 BKN250
     FM131400 14007KT P6SM FEW025 SCT250
     FM131800 23007KT P6SM VCTS SCT040CB BKN250=

USA.gov is the U.S. government's official web portal to all federal, state and local government web resources and services.